createdAt,value
2022-11-21T00:01:25.629Z,31.92
2022-11-21T00:03:53.391Z,25.33
2022-11-21T00:06:22.931Z,27.00
2022-11-21T00:08:50.380Z,25.25
2022-11-21T00:11:17.584Z,24.65
2022-11-21T00:13:44.847Z,24.58
2022-11-21T00:16:15.148Z,27.60
2022-11-21T00:18:43.376Z,30.73
2022-11-21T00:21:14.151Z,27.50
2022-11-21T00:23:42.796Z,23.27
2022-11-21T00:26:12.075Z,23.58
2022-11-21T00:28:39.601Z,27.30
2022-11-21T00:31:06.926Z,30.83
2022-11-21T00:33:38.493Z,23.70
2022-11-21T00:36:08.159Z,23.45
2022-11-21T00:38:35.588Z,27.20
2022-11-21T00:41:03.070Z,24.58
2022-11-21T00:43:30.268Z,27.15
2022-11-21T00:46:00.596Z,23.58
2022-11-21T00:48:29.360Z,34.92
2022-11-21T00:50:56.855Z,24.63
2022-11-21T00:53:24.016Z,25.13
2022-11-21T00:55:51.083Z,28.92
2022-11-21T00:58:18.214Z,31.90
2022-11-21T01:00:45.422Z,19.85
2022-11-21T01:03:12.610Z,25.08
2022-11-21T01:05:39.731Z,26.38
2022-11-21T01:08:06.834Z,35.92
2022-11-21T01:10:35.446Z,27.98
2022-11-21T01:13:03.471Z,31.27
2022-11-21T01:15:30.630Z,33.53
2022-11-21T01:17:57.823Z,22.38
2022-11-21T01:20:25.428Z,25.30
2022-11-21T01:22:52.585Z,36.75
2022-11-21T01:25:19.861Z,37.50
2022-11-21T01:27:46.973Z,25.30
2022-11-21T01:30:14.649Z,23.17
2022-11-21T01:32:41.824Z,18.55
2022-11-21T01:35:09.210Z,27.02
2022-11-21T01:37:36.377Z,35.67
2022-11-21T01:40:04.073Z,38.47
2022-11-21T01:42:54.681Z,31.83
2022-11-21T01:46:07.302Z,39.08
2022-11-21T01:48:42.641Z,25.65
2022-11-21T01:51:27.941Z,27.33
2022-11-21T01:54:16.044Z,24.30
2022-11-21T01:57:14.088Z,43.13
2022-11-21T01:59:48.665Z,22.35
2022-11-21T02:02:19.353Z,21.88
2022-11-21T02:04:47.992Z,30.30
2022-11-21T02:07:17.465Z,21.92
2022-11-21T02:09:49.138Z,33.28
2022-11-21T02:12:29.475Z,28.27
2022-11-21T02:14:58.062Z,39.13
2022-11-21T02:17:31.197Z,23.13
2022-11-21T02:20:01.217Z,29.40
2022-11-21T02:23:10.964Z,26.83
2022-11-21T02:25:41.767Z,28.55
2022-11-21T02:28:16.336Z,32.92
2022-11-21T02:30:43.659Z,28.40
2022-11-21T02:33:12.399Z,31.10
2022-11-21T02:35:40.733Z,33.25
2022-11-21T02:38:22.026Z,22.10
2022-11-21T02:41:11.623Z,20.90
2022-11-21T02:43:52.316Z,30.05
2022-11-21T02:46:19.433Z,25.45
2022-11-21T02:48:46.804Z,18.48
2022-11-21T02:51:14.044Z,20.25
2022-11-21T02:53:41.305Z,19.88
2022-11-21T02:56:08.366Z,18.17
2022-11-21T02:58:35.773Z,12.32
2022-11-21T03:01:03.204Z,16.15
2022-11-21T03:03:30.326Z,11.02
2022-11-21T03:05:57.462Z,12.45
2022-11-21T03:08:24.609Z,10.90
2022-11-21T03:10:51.802Z,11.00
2022-11-21T03:13:19.001Z,18.30
2022-11-21T03:15:46.302Z,23.42
2022-11-21T03:18:13.438Z,13.57
2022-11-21T03:20:40.531Z,13.60
2022-11-21T03:23:07.655Z,16.27
2022-11-21T03:25:34.782Z,11.82
2022-11-21T03:28:01.952Z,16.92
2022-11-21T03:30:29.085Z,15.05
2022-11-21T03:32:57.273Z,10.75
2022-11-21T03:35:25.581Z,4.78
2022-11-21T03:37:52.785Z,10.20
2022-11-21T03:40:20.365Z,5.45
2022-11-21T03:42:47.466Z,9.25
2022-11-21T03:45:14.758Z,8.43
2022-11-21T03:47:42.021Z,8.20
2022-11-21T03:50:10.134Z,4.82
2022-11-21T03:52:37.248Z,7.15
2022-11-21T03:55:04.923Z,10.25
2022-11-21T03:57:32.022Z,8.27
2022-11-21T03:59:59.314Z,13.80
2022-11-21T04:02:26.449Z,12.98
2022-11-21T04:04:53.626Z,17.42
2022-11-21T04:07:20.754Z,5.97
2022-11-21T04:09:47.981Z,15.27
2022-11-21T04:12:15.122Z,17.48
2022-11-21T04:14:42.244Z,15.40
2022-11-21T04:17:09.431Z,11.90
2022-11-21T04:19:36.591Z,20.25
2022-11-21T04:22:03.881Z,9.00
2022-11-21T04:24:31.250Z,14.30
2022-11-21T04:26:58.408Z,10.57
2022-11-21T04:29:25.598Z,20.05
2022-11-21T04:31:52.655Z,14.02
2022-11-21T04:34:19.779Z,9.32
2022-11-21T04:36:46.845Z,9.68
2022-11-21T04:39:14.039Z,11.20
2022-11-21T04:41:41.145Z,8.80
2022-11-21T04:44:08.233Z,15.18
2022-11-21T04:46:35.317Z,12.02
2022-11-21T04:49:02.505Z,12.23
2022-11-21T04:51:29.617Z,8.77
2022-11-21T04:53:56.740Z,12.07
2022-11-21T04:56:23.848Z,14.73
2022-11-21T04:58:52.867Z,9.80
2022-11-21T05:01:20.147Z,9.73
2022-11-21T05:03:47.268Z,8.45
2022-11-21T05:06:14.468Z,11.52
2022-11-21T05:08:41.588Z,14.52
2022-11-21T05:11:27.429Z,12.40
2022-11-21T05:13:54.936Z,10.80
2022-11-21T05:16:21.982Z,6.40
2022-11-21T05:18:49.141Z,12.23
2022-11-21T05:21:16.253Z,8.30
2022-11-21T05:23:43.325Z,12.65
2022-11-21T05:26:10.550Z,14.00
2022-11-21T05:28:37.863Z,16.02
2022-11-21T05:31:04.987Z,9.10
2022-11-21T05:33:32.233Z,21.88
2022-11-21T05:35:59.308Z,15.65
2022-11-21T05:38:26.421Z,13.10
2022-11-21T05:40:53.517Z,11.77
2022-11-21T05:43:39.482Z,7.45
2022-11-21T05:46:06.594Z,8.55
2022-11-21T05:48:35.955Z,12.45
2022-11-21T05:51:04.196Z,11.25
2022-11-21T05:53:31.513Z,8.98
2022-11-21T05:56:08.176Z,12.82
2022-11-21T05:58:35.833Z,10.20
2022-11-21T06:01:04.280Z,14.63
2022-11-21T06:03:35.724Z,15.10
2022-11-21T06:06:12.674Z,17.20
2022-11-21T06:08:45.877Z,22.23
2022-11-21T06:11:16.797Z,19.60
2022-11-21T06:13:44.602Z,16.63
2022-11-21T06:16:15.027Z,18.73
2022-11-21T06:18:58.149Z,17.33
2022-11-21T06:21:28.562Z,32.17
2022-11-21T06:23:58.219Z,15.98
2022-11-21T06:26:27.005Z,21.60
2022-11-21T06:28:54.626Z,15.48
2022-11-21T06:31:25.350Z,24.58
2022-11-21T06:33:58.267Z,14.35
2022-11-21T06:36:26.335Z,16.67
2022-11-21T06:38:54.959Z,24.52
2022-11-21T06:41:25.564Z,25.65
2022-11-21T06:43:53.106Z,17.85
2022-11-21T06:46:20.299Z,23.98
2022-11-21T06:48:47.409Z,16.17
2022-11-21T06:51:22.553Z,17.23
2022-11-21T06:53:55.464Z,23.73
2022-11-21T06:56:25.190Z,16.65
2022-11-21T06:58:52.909Z,8.27
2022-11-21T07:01:20.159Z,11.48
2022-11-21T07:03:47.390Z,8.75
2022-11-21T07:06:14.555Z,13.52
2022-11-21T07:08:41.681Z,19.48
2022-11-21T07:11:29.053Z,6.93
2022-11-21T07:13:56.144Z,14.27
2022-11-21T07:16:25.442Z,9.85
2022-11-21T07:18:52.557Z,8.25
2022-11-21T07:21:19.670Z,10.95
2022-11-21T07:23:47.144Z,5.25
2022-11-21T07:26:14.540Z,8.35
2022-11-21T07:28:42.001Z,6.07
2022-11-21T07:31:13.717Z,4.80
2022-11-21T07:33:46.227Z,6.43
2022-11-21T07:36:14.020Z,9.32
2022-11-21T07:38:41.744Z,4.25
2022-11-21T07:41:09.864Z,2.85
2022-11-21T07:43:37.010Z,3.78
2022-11-21T07:46:04.206Z,4.30
2022-11-21T07:48:31.425Z,4.55
2022-11-21T07:50:58.662Z,4.63
2022-11-21T07:53:25.826Z,10.48
2022-11-21T07:55:52.979Z,9.80
2022-11-21T07:58:20.159Z,12.30
2022-11-21T08:00:47.251Z,3.63
2022-11-21T08:03:14.338Z,12.30
2022-11-21T08:05:43.657Z,4.88
2022-11-21T08:10:44.808Z,5.55
2022-11-21T08:13:13.100Z,2.58
2022-11-21T08:15:40.400Z,3.65
2022-11-21T08:18:18.485Z,6.60
2022-11-21T08:20:45.957Z,4.35
2022-11-21T08:23:13.273Z,4.47
2022-11-21T08:25:41.955Z,3.75
2022-11-21T08:28:10.777Z,2.20
2022-11-21T08:30:40.076Z,4.85
2022-11-21T08:33:07.315Z,7.07
2022-11-21T08:35:39.430Z,4.68
2022-11-21T08:38:06.688Z,3.58
2022-11-21T08:40:35.309Z,1.63
2022-11-21T08:43:07.467Z,6.20
2022-11-21T08:45:36.474Z,2.63
2022-11-21T08:48:08.223Z,1.20
2022-11-21T08:50:35.414Z,2.33
2022-11-21T08:53:02.822Z,4.15
2022-11-21T08:55:30.886Z,3.80
2022-11-21T08:57:58.586Z,2.70
2022-11-21T09:00:25.922Z,1.35
2022-11-21T09:02:53.071Z,0.82
2022-11-21T09:05:20.510Z,0.40
2022-11-21T09:07:47.919Z,1.92
2022-11-21T09:10:15.475Z,0.93
2022-11-21T09:12:43.019Z,0.82
2022-11-21T09:15:29.799Z,1.00
2022-11-21T09:18:03.957Z,3.78
2022-11-21T09:20:33.550Z,0.68
2022-11-21T09:23:19.022Z,1.02
2022-11-21T09:25:47.094Z,4.00
2022-11-21T09:28:14.852Z,2.15
2022-11-21T09:30:43.062Z,0.10
2022-11-21T09:33:13.826Z,3.45
2022-11-21T09:35:40.960Z,1.35
2022-11-21T09:38:08.468Z,0.57
2022-11-21T09:40:36.394Z,0.30
2022-11-21T09:43:35.717Z,0.32
2022-11-21T09:48:52.636Z,0.93
2022-11-21T09:51:21.887Z,1.05
2022-11-21T09:53:57.371Z,5.18
2022-11-21T09:56:25.968Z,2.85
2022-11-21T09:59:20.274Z,0.75
2022-11-21T10:01:47.782Z,1.33
2022-11-21T10:04:14.962Z,1.05
2022-11-21T10:07:28.536Z,2.38
2022-11-21T10:10:28.613Z,4.72
2022-11-21T10:13:35.616Z,5.60
2022-11-21T10:16:23.487Z,3.33
2022-11-21T10:19:32.553Z,7.45
2022-11-21T10:22:39.230Z,7.78
2022-11-21T10:25:17.085Z,1.65
2022-11-21T10:28:20.691Z,2.35
2022-11-21T10:30:51.097Z,12.13
2022-11-21T10:33:39.714Z,14.38
2022-11-21T10:36:36.118Z,10.32
2022-11-21T10:39:22.401Z,3.25
2022-11-21T10:42:02.460Z,5.07
2022-11-21T10:44:49.033Z,5.97
2022-11-21T10:47:27.236Z,4.07
2022-11-21T10:50:08.275Z,4.95
2022-11-21T10:52:56.263Z,2.78
2022-11-21T10:55:23.410Z,3.72
2022-11-21T10:57:53.664Z,4.95
2022-11-21T11:00:27.545Z,1.75
2022-11-21T11:03:05.663Z,2.60
2022-11-21T11:05:37.981Z,0.85
2022-11-21T11:08:14.254Z,1.85
2022-11-21T11:11:12.397Z,4.95
2022-11-21T11:14:17.097Z,15.70
2022-11-21T11:16:46.588Z,14.05
2022-11-21T11:19:13.554Z,11.13
2022-11-21T11:21:40.624Z,26.77
2022-11-21T11:24:10.721Z,8.80
2022-11-21T11:26:48.150Z,4.03
2022-11-21T11:29:50.940Z,8.15
2022-11-21T11:32:21.686Z,3.50
2022-11-21T11:35:00.656Z,4.13
2022-11-21T11:37:40.788Z,0.45
2022-11-21T11:40:36.425Z,0.90
2022-11-21T11:44:19.972Z,0.47
2022-11-21T11:47:32.034Z,3.35
2022-11-21T11:50:10.786Z,1.98
2022-11-21T11:52:54.706Z,1.58
2022-11-21T11:55:39.385Z,3.35
2022-11-21T11:58:27.055Z,1.45
2022-11-21T12:01:03.371Z,2.63
2022-11-21T12:03:44.986Z,7.88
2022-11-21T12:06:43.492Z,7.72
2022-11-21T12:09:34.541Z,7.55
2022-11-21T12:12:30.765Z,6.07
2022-11-21T12:15:48.516Z,3.47
2022-11-21T12:18:18.231Z,1.73
2022-11-21T12:21:08.518Z,3.33
2022-11-21T12:23:47.040Z,1.55
2022-11-21T12:26:20.299Z,2.75
2022-11-21T12:28:59.768Z,0.73
2022-11-21T12:31:41.607Z,1.52
2022-11-21T12:34:30.125Z,1.38
2022-11-21T12:37:29.631Z,2.30
2022-11-21T12:40:33.496Z,2.17
2022-11-21T12:43:45.264Z,0.65
2022-11-21T12:47:04.995Z,1.25
2022-11-21T12:50:26.833Z,1.35
2022-11-21T12:53:23.123Z,0.75
2022-11-21T12:56:03.418Z,5.43
2022-11-21T12:58:39.352Z,0.80
2022-11-21T13:01:21.469Z,0.75
2022-11-21T13:04:04.744Z,1.30
2022-11-21T13:06:38.357Z,0.55
2022-11-21T13:09:12.662Z,2.60
2022-11-21T13:12:03.284Z,1.27
2022-11-21T13:14:45.303Z,1.70
2022-11-21T13:17:25.177Z,1.60
2022-11-21T13:20:04.597Z,0.95
2022-11-21T13:25:39.801Z,1.98
2022-11-21T13:28:13.207Z,4.32
2022-11-21T13:31:02.001Z,1.58
2022-11-21T13:33:35.158Z,3.05
2022-11-21T13:36:07.286Z,1.20
2022-11-21T13:38:53.320Z,0.93
2022-11-21T13:42:36.132Z,1.58
2022-11-21T13:45:47.181Z,2.67
2022-11-21T13:48:36.594Z,1.83
2022-11-21T13:54:20.356Z,2.05
2022-11-21T13:57:19.255Z,12.85
2022-11-21T14:00:19.871Z,1.75
2022-11-21T14:03:18.240Z,1.58
2022-11-21T14:06:19.622Z,6.65
2022-11-21T14:09:17.901Z,3.67
2022-11-21T14:12:04.138Z,7.78
2022-11-21T14:14:49.685Z,7.85
2022-11-21T14:17:47.367Z,3.63
2022-11-21T14:20:21.000Z,5.63
2022-11-21T14:23:02.723Z,11.63
2022-11-21T14:25:39.608Z,10.93
2022-11-21T14:28:21.206Z,14.65
2022-11-21T14:30:55.166Z,12.63
2022-11-21T14:33:35.708Z,3.90
2022-11-21T14:36:27.687Z,1.75
2022-11-21T14:39:35.304Z,5.13
2022-11-21T14:41:56.015Z,2.40
2022-11-21T14:44:24.100Z,2.65
2022-11-21T14:47:19.787Z,4.38
2022-11-21T14:49:53.494Z,6.50
2022-11-21T14:52:33.416Z,2.30
2022-11-21T14:57:55.271Z,1.42
2022-11-21T15:03:23.125Z,4.95
2022-11-21T15:06:06.225Z,3.80
2022-11-21T15:11:45.523Z,2.45
2022-11-21T15:14:38.463Z,2.65
2022-11-21T15:17:12.124Z,4.75
2022-11-21T15:19:47.174Z,6.30
2022-11-21T15:22:34.624Z,4.80
2022-11-21T15:25:16.629Z,3.13
2022-11-21T15:28:11.729Z,3.83
2022-11-21T15:30:38.962Z,6.15
2022-11-21T15:33:19.682Z,3.20
2022-11-21T15:35:54.812Z,2.70
2022-11-21T15:38:47.953Z,6.68
2022-11-21T15:41:15.038Z,2.58
2022-11-21T15:43:50.047Z,1.42
2022-11-21T15:46:34.446Z,1.55
2022-11-21T15:49:31.567Z,2.15
2022-11-21T15:52:10.401Z,2.70
2022-11-21T15:54:37.717Z,2.72
2022-11-21T15:57:04.834Z,2.05
2022-11-21T15:59:32.382Z,3.35
2022-11-21T16:01:59.814Z,1.55
2022-11-21T16:04:27.216Z,5.05
2022-11-21T16:06:54.860Z,2.78
2022-11-21T16:09:22.166Z,3.42
2022-11-21T16:11:49.251Z,2.15
2022-11-21T16:14:17.764Z,4.03
2022-11-21T16:16:47.106Z,1.73
2022-11-21T16:19:15.324Z,5.95
2022-11-21T16:21:42.725Z,11.90
2022-11-21T16:24:10.049Z,1.20
2022-11-21T16:26:37.245Z,2.08
2022-11-21T16:29:05.087Z,5.47
2022-11-21T16:31:32.873Z,1.10
2022-11-21T16:34:00.141Z,2.33
2022-11-21T16:36:29.850Z,1.40
2022-11-21T16:39:01.895Z,1.55
2022-11-21T16:41:30.652Z,2.05
2022-11-21T16:43:58.052Z,1.00
2022-11-21T16:46:25.488Z,1.70
2022-11-21T16:49:01.992Z,1.08
2022-11-21T16:51:29.633Z,1.15
2022-11-21T16:53:57.527Z,0.88
2022-11-21T16:56:25.192Z,7.88
2022-11-21T16:58:52.689Z,2.55
2022-11-21T17:01:25.776Z,2.88
2022-11-21T17:03:53.552Z,1.65
2022-11-21T17:06:24.486Z,3.42
2022-11-21T17:08:51.629Z,1.48
2022-11-21T17:11:28.435Z,2.95
2022-11-21T17:14:01.241Z,2.55
2022-11-21T17:16:29.524Z,1.23
2022-11-21T17:18:59.744Z,2.33
2022-11-21T17:21:28.318Z,1.38
2022-11-21T17:23:55.660Z,4.60
2022-11-21T17:26:26.125Z,1.80
2022-11-21T17:29:02.815Z,2.05
2022-11-21T17:31:30.253Z,1.25
2022-11-21T17:34:00.079Z,2.42
2022-11-21T17:36:29.367Z,2.15
2022-11-21T17:38:56.689Z,1.63
2022-11-21T17:41:25.314Z,2.40
2022-11-21T17:43:57.278Z,3.38
2022-11-21T17:46:25.611Z,2.80
2022-11-21T17:48:57.693Z,5.45
2022-11-21T17:51:33.726Z,3.03
2022-11-21T17:54:01.623Z,8.13
2022-11-21T17:56:32.259Z,3.83
2022-11-21T17:59:00.039Z,7.28
2022-11-21T18:01:28.459Z,10.07
2022-11-21T18:03:59.120Z,8.10
2022-11-21T18:06:35.281Z,3.85
2022-11-21T18:09:04.190Z,10.32
2022-11-21T18:11:39.590Z,6.85
2022-11-21T18:14:10.531Z,8.68
2022-11-21T18:16:38.914Z,12.00
2022-11-21T18:19:06.675Z,8.50
2022-11-21T18:21:37.578Z,12.20
2022-11-21T18:24:05.344Z,10.75
2022-11-21T18:26:36.407Z,8.68
2022-11-21T18:29:34.616Z,9.02
2022-11-21T18:31:54.490Z,18.48
2022-11-21T18:34:21.613Z,13.18
2022-11-21T18:36:48.738Z,8.60
2022-11-21T18:39:16.005Z,11.00
2022-11-21T18:41:43.667Z,10.65
2022-11-21T18:44:14.620Z,10.07
2022-11-21T18:46:44.421Z,12.75
2022-11-21T18:49:11.520Z,10.73
2022-11-21T18:51:39.063Z,8.95
2022-11-21T18:54:08.999Z,8.48
2022-11-21T18:56:38.431Z,11.25
2022-11-21T19:01:35.605Z,8.70
2022-11-21T19:04:03.605Z,13.85
2022-11-21T19:06:31.758Z,17.15
2022-11-21T19:08:59.200Z,17.45
2022-11-21T19:11:29.135Z,20.27
2022-11-21T19:13:58.879Z,29.00
2022-11-21T19:16:30.379Z,23.55
2022-11-21T19:21:46.698Z,14.40
2022-11-21T19:24:15.647Z,14.27
2022-11-21T19:26:43.164Z,26.00
2022-11-21T19:29:11.227Z,29.02
2022-11-21T19:31:45.338Z,21.23
2022-11-21T19:34:14.762Z,19.95
2022-11-21T19:36:43.231Z,13.48
2022-11-21T19:39:11.682Z,17.80
2022-11-21T19:41:39.513Z,30.05
2022-11-21T19:44:06.848Z,15.15
2022-11-21T19:46:37.808Z,18.23
2022-11-21T19:49:07.142Z,15.70
2022-11-21T19:51:41.154Z,13.57
2022-11-21T19:54:12.327Z,15.93
2022-11-21T19:56:39.851Z,20.30
2022-11-21T19:59:07.199Z,12.45
2022-11-21T20:01:35.183Z,12.45
2022-11-21T20:04:04.621Z,15.23
2022-11-21T20:06:39.359Z,12.90
2022-11-21T20:09:13.023Z,12.13
2022-11-21T20:11:43.122Z,18.10
2022-11-21T20:14:17.778Z,13.20
2022-11-21T20:16:48.349Z,18.27
2022-11-21T20:19:19.029Z,11.77
2022-11-21T20:21:47.271Z,10.73
2022-11-21T20:24:14.738Z,10.02
2022-11-21T20:26:42.646Z,14.57
2022-11-21T20:29:15.385Z,10.30
2022-11-21T20:31:43.783Z,7.85
2022-11-21T20:37:00.172Z,12.65
2022-11-21T20:39:31.235Z,10.20
2022-11-21T20:41:59.272Z,9.52
2022-11-21T20:47:16.120Z,12.88
2022-11-21T20:49:43.332Z,9.98
2022-11-21T20:54:57.832Z,9.45
2022-11-21T20:57:26.928Z,20.25
2022-11-21T20:59:54.259Z,8.32
2022-11-21T21:02:21.509Z,13.00
2022-11-21T21:04:49.050Z,11.85
2022-11-21T21:07:16.407Z,14.30
2022-11-21T21:09:43.722Z,15.57
2022-11-21T21:12:11.163Z,12.88
2022-11-21T21:14:38.433Z,10.48
2022-11-21T21:17:05.770Z,13.40
2022-11-21T21:19:33.299Z,7.13
2022-11-21T21:22:00.641Z,9.98
2022-11-21T21:24:27.925Z,10.32
2022-11-21T21:26:55.131Z,11.57
2022-11-21T21:29:22.872Z,6.90
2022-11-21T21:31:52.110Z,7.10
2022-11-21T21:34:21.826Z,9.02
2022-11-21T21:36:50.365Z,10.32
2022-11-21T21:39:17.990Z,9.95
2022-11-21T21:41:45.682Z,13.00
2022-11-21T21:44:13.411Z,21.20
2022-11-21T21:46:40.718Z,18.77
2022-11-21T21:49:08.126Z,18.77
2022-11-21T21:51:36.615Z,15.30
2022-11-21T21:54:04.593Z,18.95
2022-11-21T21:56:33.087Z,20.33
2022-11-21T21:59:00.439Z,15.57
2022-11-21T22:01:31.181Z,13.35
2022-11-21T22:04:02.038Z,17.00
2022-11-21T22:06:31.732Z,15.40
2022-11-21T22:08:59.021Z,18.67
2022-11-21T22:11:30.247Z,16.65
2022-11-21T22:14:01.161Z,18.58
2022-11-21T22:16:29.519Z,12.10
2022-11-21T22:18:57.301Z,12.43
2022-11-21T22:21:33.711Z,12.30
2022-11-21T22:26:52.090Z,10.70
2022-11-21T22:29:19.284Z,10.90
2022-11-21T22:31:46.584Z,10.95
2022-11-21T22:34:13.946Z,12.98
2022-11-21T22:36:42.303Z,13.18
2022-11-21T22:39:09.519Z,13.43
2022-11-21T22:41:36.725Z,17.27
2022-11-21T22:44:04.115Z,13.27
2022-11-21T22:46:31.820Z,20.42
2022-11-21T22:48:59.394Z,14.85
2022-11-21T22:51:28.743Z,13.13
2022-11-21T22:53:56.346Z,10.77
2022-11-21T22:56:24.446Z,13.48
2022-11-21T22:58:51.663Z,15.38
2022-11-21T23:01:22.203Z,11.70
2022-11-21T23:03:50.271Z,11.45
2022-11-21T23:06:24.013Z,11.60
2022-11-21T23:08:54.188Z,9.50
2022-11-21T23:11:25.539Z,11.20
2022-11-21T23:13:53.533Z,8.63
2022-11-21T23:16:21.150Z,7.82
2022-11-21T23:18:50.747Z,8.73
2022-11-21T23:21:18.133Z,10.35
2022-11-21T23:23:45.243Z,7.75
2022-11-21T23:26:12.424Z,14.25
2022-11-21T23:28:39.671Z,7.88
2022-11-21T23:31:06.725Z,6.68
2022-11-21T23:33:33.987Z,8.18
2022-11-21T23:36:01.133Z,8.48
2022-11-21T23:38:28.229Z,10.82
2022-11-21T23:40:55.377Z,12.00
2022-11-21T23:43:22.553Z,14.27
2022-11-21T23:45:53.833Z,11.35
2022-11-21T23:48:23.531Z,8.40
2022-11-21T23:50:50.849Z,9.52
2022-11-21T23:53:19.491Z,20.25
2022-11-21T23:55:47.827Z,10.33
2022-11-21T23:58:15.714Z,11.70
